Time;durP1;ratioP1;P1;durP2;ratioP2;P2;SDS_P1;SDS_P2;PMS_P1;PMS_P2;Temp;Humidity;BMP_temperature;BMP_pressure;BME280_temperature;BME280_humidity;BME280_pressure;Samples;Min_cycle;Max_cycle;Signal;HPM_P1;HPM_P2
2023/05/08 00:00:00;;;;;;;7.53;4.95;;;;;;;13.01;100.00;96110.16;1029738;28;20023;-72
2023/05/08 00:00:31;;;;;;;4.88;4.10;;;;;;;12.98;100.00;96111.47;1029727;28;20556;-71
2023/05/08 00:01:01;;;;;;;6.88;4.72;;;;;;;13.01;100.00;96104.09;1026268;28;20054;-71
2023/05/08 00:01:32;;;;;;;5.07;4.35;;;;;;;12.97;100.00;96112.53;1026496;28;20424;-72
2023/05/08 00:02:03;;;;;;;4.97;3.97;;;;;;;12.97;100.00;96109.09;1029773;28;20078;-72
2023/05/08 00:02:33;;;;;;;4.82;3.92;;;;;;;12.92;100.00;96102.00;1021921;28;20034;-71
2023/05/08 00:03:04;;;;;;;5.07;4.13;;;;;;;12.94;100.00;96107.00;1029894;28;20109;-72
2023/05/08 00:03:34;;;;;;;8.38;4.65;;;;;;;12.95;100.00;96117.28;1029942;28;20448;-71
2023/05/08 00:04:05;;;;;;;5.72;4.60;;;;;;;12.94;100.00;96115.72;1029720;28;20022;-71
2023/05/08 00:04:35;;;;;;;6.47;4.38;;;;;;;12.96;100.00;96110.16;1029879;28;20022;-72
2023/05/08 00:05:06;;;;;;;8.00;4.53;;;;;;;12.95;100.00;96109.38;1025802;28;20023;-71
2023/05/08 00:05:37;;;;;;;8.50;5.47;;;;;;;12.94;100.00;96105.19;1022060;28;20055;-72
2023/05/08 00:06:07;;;;;;;8.50;4.80;;;;;;;12.95;100.00;96116.50;1021689;29;20026;-70
2023/05/08 00:06:38;;;;;;;5.85;4.82;;;;;;;12.95;100.00;96114.66;1017814;29;20027;-71
2023/05/08 00:07:08;;;;;;;6.47;4.22;;;;;;;12.95;100.00;96111.22;1012511;29;20096;-71
2023/05/08 00:07:38;;;;;;;6.10;4.40;;;;;;;12.93;100.00;96116.75;1015308;29;20027;-71
2023/05/08 00:08:09;;;;;;;6.53;4.70;;;;;;;12.93;100.00;96103.59;1018063;28;20442;-71
2023/05/08 00:08:40;;;;;;;7.20;4.38;;;;;;;12.94;100.00;96109.63;1017171;28;20031;-71
2023/05/08 00:09:11;;;;;;;9.75;4.80;;;;;;;12.92;100.00;96115.19;1020596;28;20541;-71
2023/05/08 00:09:42;;;;;;;7.68;4.85;;;;;;;12.93;100.00;96108.84;1021086;28;20023;-71
2023/05/08 00:10:12;;;;;;;6.78;4.88;;;;;;;12.92;100.00;96109.13;1025795;28;20034;-71
2023/05/08 00:10:42;;;;;;;7.25;4.97;;;;;;;12.90;100.00;96106.75;1033291;28;20029;-71
2023/05/08 00:11:13;;;;;;;5.03;4.22;;;;;;;12.92;100.00;96109.91;1031092;28;20037;-71
2023/05/08 00:11:43;;;;;;;6.25;5.00;;;;;;;12.90;100.00;96112.03;1033131;28;20030;-71
2023/05/08 00:12:14;;;;;;;8.13;4.32;;;;;;;12.91;100.00;96110.97;1025721;28;20030;-71
2023/05/08 00:12:44;;;;;;;5.40;4.78;;;;;;;12.90;100.00;96104.13;1027059;28;20144;-71
2023/05/08 00:13:15;;;;;;;5.72;5.10;;;;;;;12.86;100.00;96091.75;1021780;29;20027;-72
2023/05/08 00:13:45;;;;;;;7.53;5.47;;;;;;;12.89;100.00;96109.66;1019404;29;20425;-72
2023/05/08 00:14:16;;;;;;;8.32;5.40;;;;;;;12.92;100.00;96103.88;1014235;29;20032;-71
2023/05/08 00:14:46;;;;;;;7.70;5.40;;;;;;;12.89;100.00;96107.03;1022475;28;20556;-71
2023/05/08 00:15:17;;;;;;;8.20;5.40;;;;;;;12.88;100.00;96103.63;1024794;28;20034;-71
2023/05/08 00:15:47;;;;;;;7.80;4.80;;;;;;;12.90;100.00;96105.97;1018742;28;20027;-71
2023/05/08 00:16:18;;;;;;;8.02;5.18;;;;;;;12.89;100.00;96107.03;1022505;28;20039;-70
2023/05/08 00:16:48;;;;;;;6.25;5.07;;;;;;;12.85;100.00;96114.69;1019723;29;20032;-71
2023/05/08 00:17:19;;;;;;;7.43;5.05;;;;;;;12.86;100.00;96105.72;1019153;28;20585;-72
2023/05/08 00:17:49;;;;;;;6.28;5.18;;;;;;;12.88;100.00;96111.50;1026809;28;20551;-71
2023/05/08 00:18:20;;;;;;;7.85;5.97;;;;;;;12.88;100.00;96106.25;1026632;28;20069;-71
2023/05/08 00:18:52;;;;;;;7.65;5.40;;;;;;;12.87;100.00;96111.75;1030177;28;20526;-72
2023/05/08 00:19:22;;;;;;;10.32;6.05;;;;;;;12.87;100.00;96117.81;1026782;28;20601;-72
2023/05/08 00:19:53;;;;;;;7.18;5.40;;;;;;;12.87;100.00;96114.41;1026610;28;20038;-71
2023/05/08 00:20:23;;;;;;;7.05;5.90;;;;;;;12.85;100.00;96111.25;1030720;28;20026;-71
2023/05/08 00:20:54;;;;;;;6.90;6.07;;;;;;;12.88;100.00;96116.00;1031123;28;20073;-72
2023/05/08 00:21:24;;;;;;;7.32;5.63;;;;;;;12.87;100.00;96117.03;1030459;28;20045;-72
2023/05/08 00:21:55;;;;;;;7.50;5.57;;;;;;;12.86;100.00;96112.81;1026577;28;20027;-71
2023/05/08 00:22:25;;;;;;;8.05;5.53;;;;;;;12.87;100.00;96114.41;1030465;28;20037;-73
2023/05/08 00:22:56;;;;;;;7.88;5.78;;;;;;;12.87;100.00;96114.41;1030406;28;20077;-71
2023/05/08 00:23:27;;;;;;;7.63;5.40;;;;;;;12.89;100.00;96117.56;1026395;28;20027;-71
2023/05/08 00:23:57;;;;;;;10.30;6.35;;;;;;;12.86;100.00;96115.47;1025186;28;20035;-73
2023/05/08 00:24:28;;;;;;;9.95;5.88;;;;;;;12.85;100.00;96117.31;1026677;28;20070;-71
2023/05/08 00:24:58;;;;;;;8.35;6.13;;;;;;;12.83;100.00;96108.09;1022285;28;20030;-71
2023/05/08 00:25:30;;;;;;;7.93;5.63;;;;;;;12.84;100.00;96118.34;1026296;28;20039;-71
2023/05/08 00:26:00;;;;;;;14.70;5.80;;;;;;;12.88;100.00;96116.00;1026685;28;20611;-71
2023/05/08 00:26:31;;;;;;;7.75;5.85;;;;;;;12.87;100.00;96120.44;1026449;28;20038;-71
2023/05/08 00:27:01;;;;;;;6.90;5.93;;;;;;;12.85;100.00;96114.69;1022735;28;20031;-72
2023/05/08 00:27:32;;;;;;;8.02;6.20;;;;;;;12.85;100.00;96117.31;1025067;28;20058;-72
2023/05/08 00:28:02;;;;;;;9.82;5.95;;;;;;;12.85;100.00;96119.94;1022322;29;20034;-69
2023/05/08 00:28:33;;;;;;;8.90;5.88;;;;;;;12.85;100.00;96119.16;1022329;28;20750;-69
2023/05/08 00:29:03;;;;;;;9.90;7.18;;;;;;;12.84;100.00;96115.72;1026462;28;20044;-72
2023/05/08 00:29:34;;;;;;;8.18;6.28;;;;;;;12.79;100.00;96105.22;1030479;28;20045;-72
2023/05/08 00:30:06;;;;;;;9.55;6.15;;;;;;;12.86;100.00;96116.25;1026450;28;20066;-71
2023/05/08 00:30:37;;;;;;;8.45;6.40;;;;;;;12.83;100.00;96111.50;1022591;29;20034;-69
2023/05/08 00:31:10;;;;;;;7.70;6.57;;;;;;;12.84;100.00;96115.72;1015083;29;20032;-71
2023/05/08 00:31:41;;;;;;;7.72;5.60;;;;;;;12.86;100.00;96113.63;1023299;28;20124;-70
2023/05/08 00:32:11;;;;;;;7.45;6.07;;;;;;;12.86;100.00;96116.25;1022903;28;20591;-71
2023/05/08 00:32:42;;;;;;;9.88;7.10;;;;;;;12.85;100.00;96117.31;1022950;28;20560;-71
2023/05/08 00:33:12;;;;;;;9.60;7.10;;;;;;;12.88;100.00;96122.06;1014634;29;20036;-72
2023/05/08 00:33:42;;;;;;;10.10;6.80;;;;;;;12.86;100.00;96124.16;1018530;29;20036;-72
2023/05/08 00:34:13;;;;;;;9.10;6.80;;;;;;;12.87;100.00;96115.19;1018799;29;20036;-72
2023/05/08 00:34:43;;;;;;;8.80;6.90;;;;;;;12.82;100.00;96107.31;1026373;28;20069;-72
2023/05/08 00:35:14;;;;;;;11.07;6.75;;;;;;;12.87;100.00;96117.81;1022661;28;20027;-71
2023/05/08 00:35:44;;;;;;;9.73;7.32;;;;;;;12.87;100.00;96115.19;1022777;29;20027;-73
2023/05/08 00:36:15;;;;;;;10.02;6.60;;;;;;;12.88;100.00;96121.25;1017292;29;20049;-72
2023/05/08 00:36:46;;;;;;;10.40;6.93;;;;;;;12.85;100.00;96119.94;1015465;29;20020;-72
2023/05/08 00:37:16;;;;;;;9.95;6.85;;;;;;;12.88;100.00;96119.41;1019201;28;20032;-72
2023/05/08 00:37:47;;;;;;;10.25;7.10;;;;;;;12.87;100.00;96123.09;1025228;28;20437;-72
2023/05/08 00:38:17;;;;;;;9.18;6.95;;;;;;;12.88;100.00;96121.25;1034725;28;20029;-72
2023/05/08 00:38:48;;;;;;;12.25;6.55;;;;;;;12.87;100.00;96125.72;1038117;28;20029;-72
2023/05/08 00:39:18;;;;;;;9.52;7.13;;;;;;;12.87;100.00;96117.03;1038433;28;20025;-73
2023/05/08 00:39:48;;;;;;;7.25;6.35;;;;;;;12.87;100.00;96123.09;1034295;28;20089;-72
2023/05/08 00:40:19;;;;;;;7.60;6.50;;;;;;;12.89;100.00;96118.34;1030175;28;20038;-72
2023/05/08 00:40:49;;;;;;;9.13;6.38;;;;;;;12.91;100.00;96120.69;1026524;28;20082;-72
2023/05/08 00:41:20;;;;;;;8.57;6.78;;;;;;;12.93;100.00;96119.38;1023946;28;20023;-72
2023/05/08 00:41:50;;;;;;;9.18;7.03;;;;;;;12.93;100.00;96118.59;1027012;28;20034;-70
2023/05/08 00:42:21;;;;;;;10.00;7.30;;;;;;;12.93;100.00;96119.38;1026495;28;20555;-72
2023/05/08 00:42:52;;;;;;;9.90;6.93;;;;;;;12.88;100.00;96116.78;1030359;28;20066;-72
2023/05/08 00:43:25;;;;;;;8.25;6.82;;;;;;;12.93;100.00;96121.22;1032724;28;20508;-72
2023/05/08 00:43:55;;;;;;;7.60;6.10;;;;;;;12.94;100.00;96128.88;1026868;28;20019;-72
2023/05/08 00:44:26;;;;;;;8.65;6.82;;;;;;;12.91;100.00;96124.16;1031117;28;20026;-72
2023/05/08 00:44:56;;;;;;;7.45;6.50;;;;;;;12.92;100.00;96130.19;1029851;28;20081;-72
2023/05/08 00:45:37;;;;;;;8.73;6.75;;;;;;;12.92;100.00;96125.72;1026372;28;20034;-71
2023/05/08 00:46:08;;;;;;;6.57;5.75;;;;;;;12.92;100.00;96128.34;1022347;29;20038;-72
2023/05/08 00:46:39;;;;;;;15.00;6.90;;;;;;;12.88;100.00;96118.63;1025811;28;20062;-72
2023/05/08 00:47:10;;;;;;;8.45;6.18;;;;;;;12.92;100.00;96125.72;1024227;28;20074;-72
2023/05/08 00:47:41;;;;;;;8.52;6.38;;;;;;;12.96;100.00;96118.06;1018801;29;20092;-73
2023/05/08 00:48:11;;;;;;;8.25;7.22;;;;;;;12.97;100.00;96128.31;1010836;29;20037;-72
2023/05/08 00:48:41;;;;;;;9.65;7.18;;;;;;;12.94;100.00;96120.16;1022046;29;20023;-72
2023/05/08 00:49:13;;;;;;;9.32;6.53;;;;;;;13.01;100.00;96133.06;1018785;29;20028;-72
2023/05/08 00:49:43;;;;;;;9.43;6.97;;;;;;;12.99;100.00;96128.06;1022391;29;20745;-73
2023/05/08 00:50:14;;;;;;;10.02;7.28;;;;;;;12.94;100.00;96126.25;1030589;28;20018;-73
2023/05/08 00:50:44;;;;;;;8.27;6.97;;;;;;;12.97;100.00;96130.97;1026442;28;20023;-73
2023/05/08 00:51:15;;;;;;;11.48;6.95;;;;;;;12.96;100.00;96132.03;1022493;29;20020;-73
2023/05/08 00:51:46;;;;;;;9.35;7.38;;;;;;;12.97;100.00;96120.41;1018447;29;20020;-72
2023/05/08 00:52:17;;;;;;;9.68;6.80;;;;;;;12.96;100.00;96124.13;1010640;29;20036;-72
2023/05/08 00:52:47;;;;;;;10.43;7.53;;;;;;;12.98;100.00;96129.13;1014693;29;20028;-72
2023/05/08 00:53:18;;;;;;;9.40;6.88;;;;;;;13.00;100.00;96131.50;1022586;29;20493;-72
2023/05/08 00:53:49;;;;;;;10.95;7.60;;;;;;;12.94;100.00;96131.53;1021195;29;20046;-72
2023/05/08 00:54:19;;;;;;;9.07;7.40;;;;;;;13.01;100.00;96135.69;1010578;29;20399;-72
2023/05/08 00:54:50;;;;;;;10.52;7.57;;;;;;;13.01;100.00;96135.69;1018650;29;20110;-72
2023/05/08 00:55:20;;;;;;;10.70;7.85;;;;;;;12.97;100.00;96130.97;1022599;28;20461;-72
2023/05/08 00:55:51;;;;;;;7.47;6.30;;;;;;;13.01;100.00;96138.31;1030641;28;20030;-72
2023/05/08 00:56:21;;;;;;;9.68;7.45;;;;;;;12.91;100.00;96129.41;1022567;29;20043;-72
2023/05/08 00:56:52;;;;;;;10.38;7.35;;;;;;;12.96;100.00;96137.28;1022579;29;20027;-73
2023/05/08 00:57:22;;;;;;;9.80;7.13;;;;;;;12.94;100.00;96131.53;1024449;28;20067;-72
2023/05/08 00:57:53;;;;;;;10.40;6.97;;;;;;;12.96;100.00;96128.59;1022589;29;20023;-72
2023/05/08 00:58:23;;;;;;;10.82;7.38;;;;;;;12.93;100.00;96124.66;1018532;29;20036;-71
2023/05/08 00:58:53;;;;;;;7.78;6.45;;;;;;;12.98;100.00;96127.28;1028876;28;20025;-72
2023/05/08 00:59:24;;;;;;;8.88;7.13;;;;;;;13.03;100.00;96137.00;1023686;28;20380;-72
2023/05/08 00:59:55;;;;;;;8.98;7.50;;;;;;;13.03;100.00;96138.88;1018285;29;20034;-73
2023/05/08 01:00:25;;;;;;;12.07;7.43;;;;;;;12.98;100.00;96132.56;1025001;28;20031;-72
2023/05/08 01:00:56;;;;;;;9.57;6.85;;;;;;;13.05;100.00;96137.53;1022272;29;20099;-72
2023/05/08 01:01:26;;;;;;;8.05;6.95;;;;;;;13.01;100.00;96125.16;1014653;29;20039;-72
2023/05/08 01:01:57;;;;;;;10.70;7.63;;;;;;;13.04;100.00;96129.91;1022347;29;20024;-72
2023/05/08 01:02:30;;;;;;;9.43;7.53;;;;;;;13.05;100.00;96136.75;1026200;28;20024;-72
2023/05/08 01:03:00;;;;;;;9.65;7.32;;;;;;;13.06;100.00;96138.31;1018497;29;20035;-72
2023/05/08 01:03:31;;;;;;;9.02;7.13;;;;;;;13.03;100.00;96139.66;1019227;28;20143;-72
2023/05/08 01:04:03;;;;;;;14.88;7.82;;;;;;;12.98;100.00;96123.88;1025979;28;20023;-72
2023/05/08 01:04:33;;;;;;;10.82;8.20;;;;;;;13.03;100.00;96128.31;1023218;28;20085;-71
2023/05/08 01:05:04;;;;;;;9.65;8.05;;;;;;;13.07;100.00;96134.63;1022315;29;20078;-72
2023/05/08 01:05:35;;;;;;;10.45;7.88;;;;;;;13.01;100.00;96128.59;1022668;29;20023;-72
2023/05/08 01:06:06;;;;;;;9.00;7.15;;;;;;;13.03;100.00;96138.88;1010713;29;20547;-72
2023/05/08 01:06:37;;;;;;;12.07;7.20;;;;;;;13.01;100.00;96133.88;1010725;29;20586;-73
2023/05/08 01:07:07;;;;;;;11.30;7.13;;;;;;;13.01;100.00;96130.44;1026745;28;20022;-72
2023/05/08 01:07:38;;;;;;;8.48;7.40;;;;;;;13.03;100.00;96126.47;1027142;28;20480;-72
2023/05/08 01:08:08;;;;;;;9.43;7.90;;;;;;;13.05;100.00;96136.75;1022289;29;20093;-72
2023/05/08 01:08:39;;;;;;;11.40;7.70;;;;;;;13.06;100.00;96135.69;1021940;29;20043;-72
2023/05/08 01:09:10;;;;;;;9.80;7.05;;;;;;;13.02;100.00;96132.81;1026279;28;20505;-71
2023/05/08 01:09:40;;;;;;;10.18;7.63;;;;;;;13.05;100.00;96137.53;1026383;28;20085;-72
2023/05/08 01:10:11;;;;;;;9.77;8.13;;;;;;;13.04;100.00;96135.16;1034164;28;20117;-72
2023/05/08 01:11:00;;;;;;;12.10;7.78;;;;;;;13.02;100.00;96132.03;1030157;28;20527;-73
2023/05/08 01:12:07;;;;;;;8.25;7.35;;;;;;;13.04;100.00;96138.59;1030305;28;20033;-72
2023/05/08 01:12:46;;;;;;;8.77;6.90;;;;;;;13.07;100.00;96143.31;1021933;28;20027;-72
2023/05/08 01:13:45;;;;;;;11.55;7.00;;;;;;;13.08;100.00;96130.97;1017038;29;20094;-72
2023/05/08 01:14:21;;;;;;;7.78;6.32;;;;;;;13.04;100.00;96135.16;1027136;28;20773;-72
2023/05/08 01:15:07;;;;;;;11.18;6.90;;;;;;;13.07;100.00;96137.25;1026543;28;20034;-73
2023/05/08 01:15:49;;;;;;;9.50;7.07;;;;;;;13.02;100.00;96132.03;1025890;28;20039;-72
2023/05/08 01:17:04;;;;;;;8.45;6.85;;;;;;;13.08;100.00;96138.88;1026191;28;20045;-72
2023/05/08 01:17:59;;;;;;;9.50;6.53;;;;;;;13.07;100.00;96134.63;1016357;29;20131;-72
2023/05/08 01:18:35;;;;;;;9.85;6.88;;;;;;;13.03;100.00;96136.22;1010234;29;20044;-72
2023/05/08 01:19:15;;;;;;;11.70;7.95;;;;;;;13.02;100.00;96138.06;1013463;29;20029;-71
2023/05/08 01:20:10;;;;;;;11.40;7.75;;;;;;;12.95;100.00;96134.94;1025295;28;20026;-72
2023/05/08 01:21:02;;;;;;;8.48;7.00;;;;;;;12.96;100.00;96137.28;1025724;28;20638;-72
2023/05/08 01:21:35;;;;;;;9.95;8.10;;;;;;;12.97;100.00;96138.06;1016380;29;20537;-72
2023/05/08 01:22:14;;;;;;;9.15;7.82;;;;;;;12.88;100.00;96132.59;1018479;29;20023;-72
2023/05/08 01:23:26;;;;;;;12.52;8.82;;;;;;;12.90;100.00;96127.81;1026388;28;20026;-72
2023/05/08 01:24:05;;;;;;;10.35;7.55;;;;;;;12.89;100.00;96128.09;1028634;28;20018;-71
2023/05/08 01:24:41;;;;;;;13.40;8.85;;;;;;;12.89;100.00;96134.16;1026665;28;20080;-72
2023/05/08 01:25:30;;;;;;;9.65;7.55;;;;;;;12.91;100.00;96137.31;1022657;28;20079;-72
2023/05/08 01:26:15;;;;;;;15.15;8.52;;;;;;;12.89;100.00;96133.38;1025733;28;20026;-72
2023/05/08 01:27:23;;;;;;;10.00;8.00;;;;;;;12.86;100.00;96134.69;1022844;28;20034;-72
2023/05/08 01:28:07;;;;;;;9.50;7.15;;;;;;;12.85;100.00;96138.38;1016441;29;20052;-72
2023/05/08 01:28:58;;;;;;;13.98;8.68;;;;;;;12.88;100.00;96132.59;1019520;29;20201;-70
2023/05/08 01:29:47;;;;;;;;;;;;;;;12.90;100.00;96127.81;1020266;28;20047;-72
2023/05/08 01:30:33;;;;;;;10.65;7.32;;;;;;;12.91;100.00;96137.31;1023364;28;19914;-72
2023/05/08 01:31:28;;;;;;;10.35;7.57;;;;;;;12.91;100.00;96129.41;1030692;28;20057;-71
2023/05/08 01:32:21;;;;;;;8.75;7.28;;;;;;;12.96;100.00;96137.28;1024679;28;20102;-72
2023/05/08 01:32:56;;;;;;;10.25;7.25;;;;;;;12.97;100.00;96133.59;1020534;29;20897;-72
2023/05/08 01:33:42;;;;;;;11.93;7.80;;;;;;;12.97;100.00;96133.59;1024716;28;20034;-72
2023/05/08 01:34:23;;;;;;;9.48;7.50;;;;;;;12.97;100.00;96133.59;1026509;28;20062;-72
2023/05/08 01:34:57;;;;;;;9.50;7.70;;;;;;;13.00;100.00;96131.50;1022265;29;20248;-72
2023/05/08 01:35:31;;;;;;;10.15;7.90;;;;;;;13.02;100.00;96132.03;1022261;29;20043;-72
2023/05/08 01:36:20;;;;;;;12.20;7.65;;;;;;;13.01;100.00;96136.50;1022222;29;20035;-71
2023/05/08 01:37:03;;;;;;;12.90;8.02;;;;;;;13.01;100.00;96131.25;1021071;29;20115;-72
2023/05/08 01:37:49;;;;;;;11.38;8.15;;;;;;;13.01;100.00;96136.50;1024262;28;20031;-72
2023/05/08 01:38:39;;;;;;;9.35;7.45;;;;;;;12.98;100.00;96137.81;1018184;29;20032;-71
2023/05/08 01:39:20;;;;;;;9.77;7.65;;;;;;;12.98;100.00;96142.31;1017641;29;20079;-72
2023/05/08 01:40:00;;;;;;;;;;;;;;;12.98;100.00;96137.81;1014704;29;20508;-71
2023/05/08 01:40:36;;;;;;;9.40;6.55;;;;;;;13.02;100.00;96132.03;1018214;29;19915;-72
2023/05/08 01:41:11;;;;;;;15.40;7.40;;;;;;;12.98;100.00;96137.81;1013937;29;20837;-72
2023/05/08 01:41:45;;;;;;;13.43;7.78;;;;;;;12.96;100.00;96137.28;1020906;29;20054;-72
2023/05/08 01:42:32;;;;;;;8.63;7.18;;;;;;;12.98;100.00;96140.47;1018141;29;20126;-72
2023/05/08 01:43:24;;;;;;;10.02;7.60;;;;;;;13.00;100.00;96142.81;1010518;29;20040;-72
2023/05/08 01:44:17;;;;;;;10.10;7.60;;;;;;;12.94;100.00;96133.34;1017406;29;20048;-72
2023/05/08 01:44:50;;;;;;;8.63;7.10;;;;;;;12.97;100.00;96140.72;1024163;28;20035;-71
2023/05/08 01:45:41;;;;;;;9.95;7.82;;;;;;;12.98;100.00;96142.31;1022190;29;20118;-72
2023/05/08 01:46:18;;;;;;;11.20;7.40;;;;;;;12.95;100.00;96138.34;1017112;29;20054;-72
2023/05/08 01:46:49;;;;;;;9.48;7.45;;;;;;;12.98;100.00;96142.31;1018437;29;20130;-72
2023/05/08 01:47:19;;;;;;;11.00;7.38;;;;;;;12.98;100.00;96143.09;1018113;29;20031;-72
2023/05/08 01:48:11;;;;;;;10.82;7.38;;;;;;;13.01;100.00;96146.22;1014737;29;20035;-72
2023/05/08 01:49:10;;;;;;;10.18;6.97;;;;;;;13.02;100.00;96148.63;1009672;29;20514;-72
2023/05/08 01:49:44;;;;;;;10.85;7.10;;;;;;;12.97;100.00;96130.97;1010776;29;20026;-72
2023/05/08 01:50:18;;;;;;;11.43;7.57;;;;;;;13.00;100.00;96142.81;1015418;29;20035;-72
2023/05/08 01:50:53;;;;;;;11.00;7.55;;;;;;;13.04;100.00;96140.44;1018305;29;20028;-72
2023/05/08 01:51:24;;;;;;;10.18;7.50;;;;;;;13.02;100.00;96147.84;1021976;28;20043;-72
2023/05/08 01:52:06;;;;;;;10.75;7.82;;;;;;;13.01;100.00;96144.41;1021217;29;20023;-72
2023/05/08 01:52:42;;;;;;;9.77;7.30;;;;;;;13.02;100.00;96145.97;1018773;29;20044;-72
2023/05/08 01:53:22;;;;;;;11.75;7.38;;;;;;;13.01;100.00;96146.22;1022263;28;20031;-72
2023/05/08 01:53:55;;;;;;;15.98;7.38;;;;;;;12.97;100.00;96133.59;1021725;28;20027;-72
2023/05/08 01:54:27;;;;;;;15.45;7.95;;;;;;;13.02;100.00;96147.84;1017162;29;20656;-72
2023/05/08 01:55:07;;;;;;;10.18;7.40;;;;;;;13.02;100.00;96142.56;1010657;29;20032;-72
2023/05/08 01:55:38;;;;;;;8.35;6.70;;;;;;;13.02;100.00;96138.06;1014817;29;20075;-72
2023/05/08 01:56:10;;;;;;;11.27;7.72;;;;;;;13.04;100.00;96145.69;1022568;29;20031;-72
2023/05/08 01:56:42;;;;;;;15.27;7.63;;;;;;;13.06;100.00;96151.50;1015065;29;20582;-72
2023/05/08 01:57:13;;;;;;;10.60;7.47;;;;;;;13.04;100.00;96145.69;1018514;29;20131;-72
2023/05/08 01:57:47;;;;;;;12.25;8.35;;;;;;;13.05;100.00;96147.31;1014972;29;20566;-72
2023/05/08 01:58:17;;;;;;;9.73;7.15;;;;;;;13.03;100.00;96144.13;1015159;29;20028;-72
2023/05/08 01:58:51;;;;;;;9.23;7.03;;;;;;;13.07;100.00;96153.06;1013973;29;20035;-73
2023/05/08 01:59:22;;;;;;;13.38;8.57;;;;;;;13.07;100.00;96142.53;1013314;29;20436;-71
2023/05/08 01:59:53;;;;;;;10.30;7.55;;;;;;;13.08;100.00;96146.78;1014085;29;20032;-72
2023/05/08 02:00:24;;;;;;;9.80;7.63;;;;;;;13.04;100.00;96148.34;1019243;29;20020;-72
2023/05/08 02:00:55;;;;;;;13.65;7.57;;;;;;;13.03;100.00;96149.41;1022196;29;20111;-72
2023/05/08 02:01:25;;;;;;;12.55;8.07;;;;;;;12.98;100.00;96145.72;1014168;29;20554;-72
2023/05/08 02:01:56;;;;;;;10.75;7.90;;;;;;;13.00;100.00;96152.56;1010674;29;20064;-72
2023/05/08 02:02:27;;;;;;;9.77;7.68;;;;;;;12.93;100.00;96151.00;1011174;29;20062;-72
2023/05/08 02:02:58;;;;;;;11.23;8.35;;;;;;;12.94;100.00;96149.16;1014852;29;20035;-72
2023/05/08 02:03:30;;;;;;;11.38;7.93;;;;;;;12.95;100.00;96145.47;1014367;29;20035;-72
2023/05/08 02:04:00;;;;;;;11.90;7.97;;;;;;;12.95;100.00;96146.25;1013932;29;20508;-71
2023/05/08 02:04:31;;;;;;;13.57;8.38;;;;;;;12.90;100.00;96141.00;1010323;29;20032;-71
2023/05/08 02:05:03;;;;;;;17.08;8.10;;;;;;;12.88;100.00;96142.34;1013773;29;20020;-72
2023/05/08 02:05:36;;;;;;;11.68;8.00;;;;;;;12.88;100.00;96140.50;1014304;29;20027;-72
2023/05/08 02:06:08;;;;;;;15.00;7.65;;;;;;;12.82;100.00;96133.66;1021435;28;20035;-72
2023/05/08 02:06:38;;;;;;;11.00;7.90;;;;;;;12.81;100.00;96137.34;1019831;29;20019;-72
2023/05/08 02:07:10;;;;;;;12.43;8.38;;;;;;;12.88;100.00;96143.13;1022433;29;20027;-72
2023/05/08 02:07:42;;;;;;;13.70;7.53;;;;;;;12.89;100.00;96143.91;1020280;29;20031;-72
2023/05/08 02:08:12;;;;;;;12.10;7.68;;;;;;;12.88;100.00;96145.75;1019789;29;20016;-72
2023/05/08 02:08:43;;;;;;;11.15;7.70;;;;;;;12.92;100.00;96143.38;1024206;28;20042;-72
2023/05/08 02:09:14;;;;;;;11.55;7.13;;;;;;;12.89;100.00;96138.63;1021647;29;20133;-72
2023/05/08 02:09:44;;;;;;;11.68;8.13;;;;;;;12.93;100.00;96140.47;1023513;28;20026;-72
2023/05/08 02:10:15;;;;;;;10.52;7.45;;;;;;;12.93;100.00;96140.47;1022415;28;20529;-73
2023/05/08 02:10:46;;;;;;;12.32;7.03;;;;;;;12.90;100.00;96138.34;1019276;29;20020;-72
2023/05/08 02:11:16;;;;;;;10.23;7.43;;;;;;;12.90;100.00;96124.41;1014547;29;20035;-72
2023/05/08 02:11:47;;;;;;;11.75;8.27;;;;;;;12.92;100.00;96138.88;1021857;29;20509;-71
2023/05/08 02:12:17;;;;;;;10.07;7.68;;;;;;;12.95;100.00;96143.63;1022184;29;20042;-72
2023/05/08 02:12:48;;;;;;;10.48;7.85;;;;;;;12.95;100.00;96140.22;1028219;28;20029;-72
2023/05/08 02:13:20;;;;;;;10.55;7.93;;;;;;;12.95;100.00;96137.56;1022289;29;20027;-72
2023/05/08 02:13:50;;;;;;;10.95;8.00;;;;;;;12.89;100.00;96126.25;1018147;29;20019;-71
2023/05/08 02:14:21;;;;;;;13.00;8.15;;;;;;;12.94;100.00;96128.88;1013935;29;20030;-71
2023/05/08 02:14:52;;;;;;;13.23;7.45;;;;;;;13.00;100.00;96136.75;1014351;29;20225;-71
2023/05/08 02:15:22;;;;;;;10.57;7.28;;;;;;;13.01;100.00;96138.31;1010468;29;20029;-71
2023/05/08 02:15:53;;;;;;;11.93;7.05;;;;;;;12.98;100.00;96137.03;1014134;29;20096;-72
2023/05/08 02:16:24;;;;;;;11.02;7.82;;;;;;;12.97;100.00;96136.22;1015192;29;20152;-72
2023/05/08 02:16:55;;;;;;;10.35;7.78;;;;;;;12.92;100.00;96138.88;1014744;29;20035;-72
2023/05/08 02:17:25;;;;;;;12.13;7.15;;;;;;;12.91;100.00;96139.94;1006823;29;20025;-71
2023/05/08 02:17:56;;;;;;;12.10;8.00;;;;;;;12.91;100.00;96131.25;1018119;29;20031;-71
2023/05/08 02:18:26;;;;;;;9.55;7.47;;;;;;;12.91;100.00;96137.31;1025894;28;20031;-72
2023/05/08 02:18:57;;;;;;;10.20;7.55;;;;;;;12.91;100.00;96137.31;1017583;29;20016;-71
2023/05/08 02:19:28;;;;;;;11.05;7.43;;;;;;;12.91;100.00;96137.31;1025998;28;20127;-72
2023/05/08 02:19:58;;;;;;;12.60;7.60;;;;;;;12.94;100.00;96128.88;1017891;29;20141;-72
2023/05/08 02:20:29;;;;;;;11.32;7.90;;;;;;;12.97;100.00;96133.59;1014225;29;20165;-71
2023/05/08 02:21:01;;;;;;;10.15;7.75;;;;;;;12.94;100.00;96130.72;1018476;29;20017;-70
2023/05/08 02:21:31;;;;;;;11.85;8.13;;;;;;;12.94;100.00;96126.25;1011360;29;20033;-72
2023/05/08 02:22:02;;;;;;;11.00;7.70;;;;;;;12.98;100.00;96135.19;1015231;29;20055;-72
2023/05/08 02:22:32;;;;;;;10.40;7.80;;;;;;;12.97;100.00;96130.97;1012261;29;20434;-71
2023/05/08 02:23:03;;;;;;;9.90;7.47;;;;;;;12.97;100.00;96133.59;1018821;29;20023;-72
2023/05/08 02:23:33;;;;;;;9.35;7.32;;;;;;;12.96;100.00;96137.28;1023525;28;20023;-72
2023/05/08 02:24:04;;;;;;;10.77;7.40;;;;;;;12.95;100.00;96135.72;1016736;29;20043;-72
2023/05/08 02:24:34;;;;;;;10.27;7.65;;;;;;;12.96;100.00;96131.25;1018527;29;20031;-72
2023/05/08 02:25:05;;;;;;;10.13;7.78;;;;;;;12.94;100.00;96131.53;1018454;29;20023;-71
2023/05/08 02:25:36;;;;;;;12.00;7.93;;;;;;;12.95;100.00;96135.72;1022224;29;20063;-71
2023/05/08 02:26:06;;;;;;;10.93;8.07;;;;;;;12.92;100.00;96128.34;1022601;29;20027;-72
2023/05/08 02:26:37;;;;;;;11.38;7.82;;;;;;;12.86;100.00;96123.38;1018760;29;20421;-72
2023/05/08 02:27:08;;;;;;;9.18;6.90;;;;;;;12.92;100.00;96132.84;1019702;28;20027;-72
2023/05/08 02:27:38;;;;;;;9.88;7.18;;;;;;;12.91;100.00;96132.06;1023128;28;20030;-72
2023/05/08 02:28:09;;;;;;;9.25;7.45;;;;;;;12.98;100.00;96132.56;1022619;29;20821;-72
2023/05/08 02:28:39;;;;;;;12.30;7.35;;;;;;;13.02;100.00;96126.75;1014707;29;20035;-72
2023/05/08 02:29:10;;;;;;;10.55;7.72;;;;;;;13.03;100.00;96128.31;1018824;29;20629;-72
2023/05/08 02:29:40;;;;;;;10.90;7.28;;;;;;;13.06;100.00;96135.69;1026306;28;20053;-72
2023/05/08 02:30:14;;;;;;;10.95;7.65;;;;;;;13.07;100.00;96132.00;1022511;29;20044;-72
2023/05/08 02:30:45;;;;;;;11.20;7.25;;;;;;;13.07;100.00;96129.34;1018763;29;20024;-72
2023/05/08 02:31:15;;;;;;;9.73;7.57;;;;;;;13.05;100.00;96131.50;1022796;29;20697;-71
2023/05/08 02:31:46;;;;;;;11.63;7.63;;;;;;;13.07;100.00;96127.50;1028319;28;20031;-72
2023/05/08 02:32:17;;;;;;;10.30;7.85;;;;;;;13.07;100.00;96134.63;1026508;28;20109;-72
2023/05/08 02:32:48;;;;;;;12.68;8.00;;;;;;;13.07;100.00;96132.78;1022623;28;20030;-71
2023/05/08 02:33:19;;;;;;;10.05;7.82;;;;;;;13.02;100.00;96124.13;1018724;29;20061;-72
2023/05/08 02:33:49;;;;;;;15.65;7.25;;;;;;;13.00;100.00;96123.59;1015917;29;20522;-72
2023/05/08 02:34:20;;;;;;;10.93;8.25;;;;;;;13.05;100.00;96131.50;1022713;29;20031;-72
2023/05/08 02:34:51;;;;;;;10.88;7.25;;;;;;;13.03;100.00;96125.69;1022688;28;20023;-72
2023/05/08 02:35:21;;;;;;;11.35;7.88;;;;;;;12.95;100.00;96122.56;1022901;28;20063;-71
2023/05/08 02:35:52;;;;;;;9.05;7.32;;;;;;;12.95;100.00;96127.81;1026833;28;20061;-72